TimeEST,TemperatureF,Dew PointF,Humidity,Sea Level PressureIn,VisibilityMPH,Wind Direction,Wind SpeedMPH,Gust SpeedMPH,PrecipitationIn,Events,Conditions,WindDirDegrees,DateUTC
12:53 AM,21.9,9.0,58,30.24,10.0,WNW,3.5,-,N/A,,Clear,290,2014-02-07 05:53:00
1:53 AM,21.0,10.0,63,30.22,10.0,Calm,Calm,-,N/A,,Clear,0,2014-02-07 06:53:00
2:53 AM,16.0,10.0,77,30.22,10.0,Calm,Calm,-,N/A,,Clear,0,2014-02-07 07:53:00
3:53 AM,14.0,10.0,84,30.24,10.0,Calm,Calm,-,N/A,,Clear,0,2014-02-07 08:53:00
4:53 AM,12.9,10.0,88,30.25,10.0,Calm,Calm,-,N/A,,Clear,0,2014-02-07 09:53:00
5:53 AM,12.0,9.0,88,30.25,9.0,Calm,Calm,-,N/A,,Clear,0,2014-02-07 10:53:00
6:53 AM,10.9,7.0,84,30.26,7.0,Calm,Calm,-,N/A,,Clear,0,2014-02-07 11:53:00
7:53 AM,12.9,10.9,92,30.29,6.0,Calm,Calm,-,N/A,,Clear,0,2014-02-07 12:53:00
8:53 AM,23.0,12.0,63,30.30,10.0,West,4.6,-,N/A,,Clear,280,2014-02-07 13:53:00
9:53 AM,25.0,10.9,55,30.31,10.0,Variable,3.5,-,N/A,,Clear,0,2014-02-07 14:53:00
10:53 AM,27.0,12.0,53,30.29,10.0,NW,6.9,-,N/A,,Clear,310,2014-02-07 15:53:00
11:53 AM,28.9,12.0,49,30.25,10.0,WNW,5.8,-,N/A,,Clear,300,2014-02-07 16:53:00
12:53 PM,30.0,10.9,45,30.22,10.0,NW,5.8,-,N/A,,Clear,310,2014-02-07 17:53:00
1:53 PM,30.0,12.9,49,30.22,10.0,SW,8.1,-,N/A,,Clear,220,2014-02-07 18:53:00
2:53 PM,30.0,17.1,59,30.20,10.0,WSW,6.9,-,N/A,,Clear,240,2014-02-07 19:53:00
3:53 PM,30.0,16.0,56,30.20,10.0,WSW,10.4,-,N/A,,Clear,250,2014-02-07 20:53:00
4:53 PM,28.9,18.0,64,30.21,10.0,WSW,5.8,-,N/A,,Clear,250,2014-02-07 21:53:00
5:53 PM,28.9,18.0,64,30.22,10.0,WSW,6.9,-,N/A,,Clear,250,2014-02-07 22:53:00
6:53 PM,28.9,18.0,64,30.24,10.0,WSW,5.8,-,N/A,,Clear,240,2014-02-07 23:53:00
7:53 PM,30.0,14.0,51,30.25,10.0,WSW,12.7,19.6,N/A,,Clear,240,2014-02-08 00:53:00
8:53 PM,28.9,17.1,61,30.24,10.0,SW,10.4,18.4,N/A,,Clear,230,2014-02-08 01:53:00
9:53 PM,28.9,18.0,64,30.25,10.0,West,6.9,-,N/A,,Clear,260,2014-02-08 02:53:00
10:53 PM,28.9,17.1,61,30.24,10.0,West,10.4,18.4,N/A,,Clear,260,2014-02-08 03:53:00
11:53 PM,28.0,14.0,56,30.25,10.0,West,4.6,-,N/A,,Clear,280,2014-02-08 04:53:00